Aérodrome :
LOGIN :

S'inscrire | Disclaimer

   EN    FR    IT 

 










Légende :    VFR   VFR Marginal   IFR   IFR Intensif   IFR Très Intensif
Visi : 
Plafond : 
>= 8 km
>= 3000ft
5 à 8 km
1000 à 3000 ft
1500m à 5 km
500 à 1000 ft
800 à 1500m
200 à 500 ft
< 800m
< 200 ft
Symboles :   Orages  Brouillard  Fortes neiges  Fortes précipitations  Vent > 20 kt
SIGMETs :   Divers  Orages  Givrage  Turbulence  Onde Orograph.  Cendres Volcan.







- Altitude de l'aérodrome : 219 ft
- Code IATA : DNR
- Voir les cartes d'approche


LFRD - Dinard

DERNIER METAR :
  • 100130Z AUTO 26009KT 9999 BKN024 BKN030 OVC045 09/07 Q1028 TEMPO 29015G25KT

METARs EXPIRÉS :
  • 100100Z AUTO 26007KT 9999 BKN027 BKN033 BKN046 09/07 Q1029 TEMPO 29015G25KT
  • 100030Z AUTO 27008KT 250V310 9999 BKN026 BKN043 OVC050 09/07 Q1028 TEMPO 29015G25KT
  • 100000Z AUTO 27008KT 9999 BKN023 BKN034 OVC054 09/07 Q1028 TEMPO 29015G25KT
  • 092330Z AUTO 27009KT 240V300 9999 BKN026 BKN032 OVC038 10/07 Q1028 TEMPO 29015G25KT
  • 092300Z AUTO 29012KT 9999 BKN028 OVC036 10/07 Q1028 TEMPO 29015G25KT

TAF TAF LFRD
Valide du 10 à 00h jusqu'au 11 à 00h UTC


092300Z 1000/1024 30010KT 9999 SCT030
PROB40
TEMPO 1000/1003 29015G25KT
BECMG 1016/1018 VRB03KT
BECMG 1022/1024 3000 BR
ATIS : +33 2 99 16 81 50
Pas de NOTAMs connus pour ce terrain.



MET'MAP, la Météo Aéronautique d'un coup d'oeil ! - Copyright ORBIFLY Décembre 2007 - Disclaimer

ORBIFLY MET'MAP TEAM :

Programmation & Développement : Alexandra Zaïnal
Conception & Développement : Baudouin d'Aumeries
Co-Programmation & Développement : Marc-Olivier Méhu
Soutien technique & logistique : Manuel Goepfert

Contact : metmap@orbifly.com




SOURCES & CREDITS :

   NOAA